Time;durP1;ratioP1;P1;durP2;ratioP2;P2;SDS_P1;SDS_P2;PMS_P1;PMS_P2;Temp;Humidity;BMP_temperature;BMP_pressure;BME280_temperature;BME280_humidity;BME280_pressure;Samples;Min_cycle;Max_cycle;Signal;HPM_P1;HPM_P2
2022/06/23 00:00:05;;;;;;;2.43;1.73;;;24.00;49.00;;;;;;5045515;28;20244;-94
2022/06/23 00:02:34;;;;;;;3.53;1.83;;;24.00;49.10;;;;;;5045498;28;20183;-93
2022/06/23 00:05:07;;;;;;;2.83;2.20;;;23.90;49.20;;;;;;5044536;28;20187;-93
2022/06/23 00:07:37;;;;;;;2.73;1.90;;;23.90;49.30;;;;;;5045617;28;20190;-93
2022/06/23 00:10:18;;;;;;;2.80;1.80;;;23.90;49.40;;;;;;5046762;28;20250;-93
2022/06/23 00:12:45;;;;;;;3.10;1.90;;;23.80;49.50;;;;;;5044881;28;20195;-94
2022/06/23 00:15:25;;;;;;;2.93;1.93;;;23.70;49.50;;;;;;5044711;28;20177;-93
2022/06/23 00:18:04;;;;;;;2.73;2.13;;;23.70;49.60;;;;;;5044570;28;20172;-94
2022/06/23 00:20:43;;;;;;;3.37;1.70;;;23.60;49.60;;;;;;5043387;28;20206;-93
2022/06/23 00:23:32;;;;;;;3.67;1.90;;;23.60;49.60;;;;;;5062375;28;20180;-93
2022/06/23 00:26:21;;;;;;;3.00;1.60;;;23.60;49.70;;;;;;5044398;28;20283;-93
2022/06/23 00:28:50;;;;;;;3.07;1.80;;;23.50;49.70;;;;;;5043872;28;20186;-93
2022/06/23 00:31:25;;;;;;;3.73;1.90;;;23.50;49.80;;;;;;5044045;28;20205;-93
2022/06/23 00:33:52;;;;;;;2.00;1.80;;;23.50;49.80;;;;;;5043946;28;20187;-93
2022/06/23 00:36:30;;;;;;;3.10;1.90;;;23.40;49.80;;;;;;5044311;28;20215;-93
2022/06/23 00:38:56;;;;;;;2.47;2.00;;;23.40;49.90;;;;;;5043906;28;20492;-94
2022/06/23 00:41:28;;;;;;;2.30;2.10;;;23.40;50.00;;;;;;5043241;28;20186;-93
2022/06/23 00:43:58;;;;;;;5.27;2.50;;;23.40;50.00;;;;;;5044036;28;20194;-93
2022/06/23 00:46:30;;;;;;;4.40;2.40;;;23.40;50.20;;;;;;5042292;28;20172;-93
2022/06/23 00:49:08;;;;;;;5.43;2.30;;;23.30;50.30;;;;;;5041769;28;20202;-93
2022/06/23 00:51:42;;;;;;;3.03;2.30;;;23.20;50.20;;;;;;5043253;28;20183;-93
2022/06/23 00:54:27;;;;;;;2.97;2.17;;;23.10;50.60;;;;;;5042477;28;20186;-93
2022/06/23 00:57:15;;;;;;;3.10;2.20;;;23.10;50.70;;;;;;5040839;28;20184;-93
2022/06/23 00:59:45;;;;;;;3.50;2.40;;;23.10;50.60;;;;;;5040224;28;20548;-93
2022/06/23 01:02:15;;;;;;;5.50;2.40;;;23.10;50.60;;;;;;5040093;28;20214;-93
2022/06/23 01:04:53;;;;;;;2.97;2.30;;;23.20;50.60;;;;;;5040105;28;20183;-93
2022/06/23 01:07:38;;;;;;;5.97;2.50;;;23.20;50.70;;;;;;5039232;28;20266;-93
2022/06/23 01:10:16;;;;;;;3.30;2.33;;;23.20;50.80;;;;;;5040820;28;20204;-93
2022/06/23 01:13:00;;;;;;;3.10;2.33;;;23.20;50.90;;;;;;5040450;28;20176;-94
2022/06/23 01:15:52;;;;;;;4.20;2.40;;;23.10;50.90;;;;;;5049658;28;20179;-94
2022/06/23 01:18:23;;;;;;;3.90;2.27;;;23.10;51.10;;;;;;5057148;28;20202;-94
2022/06/23 01:21:00;;;;;;;4.13;2.47;;;23.10;51.10;;;;;;5058285;28;20172;-94
2022/06/23 01:23:51;;;;;;;4.27;2.60;;;23.10;51.20;;;;;;5058047;28;20167;-94
2022/06/23 01:26:42;;;;;;;3.23;2.67;;;23.10;51.30;;;;;;5057547;28;20188;-95
2022/06/23 01:29:14;;;;;;;3.20;2.50;;;23.10;51.40;;;;;;5056288;28;20192;-94
2022/06/23 01:31:48;;;;;;;3.50;2.50;;;23.00;51.50;;;;;;5072431;28;20180;-94
2022/06/23 01:34:17;;;;;;;4.70;2.80;;;23.00;51.50;;;;;;5055658;28;20172;-93
2022/06/23 01:37:12;;;;;;;4.80;3.07;;;23.00;51.60;;;;;;5055927;28;20219;-94
2022/06/23 01:39:40;;;;;;;2.87;2.50;;;22.90;51.70;;;;;;5054841;28;20192;-95
2022/06/23 01:42:18;;;;;;;3.53;2.83;;;22.90;51.80;;;;;;5055479;28;20175;-94
2022/06/23 01:45:19;;;;;;;3.10;2.70;;;22.90;52.00;;;;;;5054568;28;20191;-94
2022/06/23 01:48:09;;;;;;;3.43;2.93;;;22.80;52.10;;;;;;5053955;28;20172;-94
2022/06/23 01:50:41;;;;;;;4.57;2.50;;;22.90;52.20;;;;;;5046547;28;20253;-92
2022/06/23 01:53:22;;;;;;;2.90;2.40;;;22.80;52.20;;;;;;5040044;28;20176;-93
2022/06/23 01:56:39;;;;;;;2.57;2.33;;;22.80;52.30;;;;;;5040740;28;20172;-93
2022/06/23 01:59:10;;;;;;;3.67;2.27;;;22.90;52.20;;;;;;4998263;28;20200;-92
2022/06/23 02:02:05;;;;;;;4.13;2.60;;;22.80;52.20;;;;;;5040868;28;20541;-92
2022/06/23 02:04:38;;;;;;;4.60;2.50;;;22.80;52.20;;;;;;5040952;28;20558;-93
2022/06/23 02:07:16;;;;;;;4.47;2.30;;;22.80;52.30;;;;;;5040409;28;20544;-93
2022/06/23 02:09:47;;;;;;;7.20;2.47;;;22.70;52.30;;;;;;5040077;28;20215;-93
2022/06/23 02:12:31;;;;;;;4.40;2.60;;;22.70;52.30;;;;;;5039824;28;20317;-92
2022/06/23 02:15:17;;;;;;;3.53;2.70;;;22.70;52.30;;;;;;5040106;28;20175;-93
2022/06/23 02:18:01;;;;;;;5.07;2.40;;;22.70;52.40;;;;;;5040380;28;20267;-93
2022/06/23 02:20:27;;;;;;;3.50;2.70;;;22.70;52.40;;;;;;5040210;28;20275;-93
2022/06/23 02:23:38;;;;;;;2.90;2.43;;;22.60;52.40;;;;;;5051676;28;20216;-94
2022/06/23 02:26:19;;;;;;;3.50;2.43;;;22.60;52.50;;;;;;5004333;28;20182;-94
2022/06/23 02:29:54;;;;;;;3.87;2.50;;;22.60;52.60;;;;;;5056553;28;20202;-94
2022/06/23 02:32:59;;;;;;;4.00;2.37;;;22.60;52.60;;;;;;4940663;29;20199;-94
2022/06/23 02:35:30;;;;;;;4.97;2.57;;;22.60;52.60;;;;;;5038264;28;20190;-94
2022/06/23 02:38:17;;;;;;;3.63;2.50;;;22.60;52.60;;;;;;5057455;28;20168;-94
2022/06/23 02:40:48;;;;;;;3.07;2.30;;;22.60;52.60;;;;;;5058449;28;20166;-94
2022/06/23 02:43:41;;;;;;;4.40;2.73;;;22.60;52.60;;;;;;5059301;28;20194;-94
2022/06/23 02:46:38;;;;;;;3.90;2.50;;;22.60;52.70;;;;;;5060541;28;20179;-94
2022/06/23 02:49:26;;;;;;;4.07;2.50;;;22.60;52.60;;;;;;5060050;28;20195;-94
2022/06/23 02:52:14;;;;;;;4.10;2.47;;;22.60;52.70;;;;;;5059228;28;20167;-94
2022/06/23 02:55:05;;;;;;;3.00;2.50;;;22.50;52.70;;;;;;5059928;28;20148;-94
2022/06/23 02:57:44;;;;;;;2.77;2.50;;;22.50;52.80;;;;;;5049683;28;20259;-93
2022/06/23 03:00:15;;;;;;;3.07;2.63;;;22.50;52.90;;;;;;5038296;28;20179;-92
2022/06/23 03:02:57;;;;;;;3.50;2.53;;;22.50;53.00;;;;;;5038689;28;20184;-92
2022/06/23 03:06:04;;;;;;;3.17;2.57;;;22.40;53.00;;;;;;5038442;28;20179;-93
2022/06/23 03:08:30;;;;;;;4.50;2.77;;;22.40;53.10;;;;;;5025120;28;20554;-93
2022/06/23 03:10:57;;;;;;;4.13;2.67;;;22.40;53.30;;;;;;5038035;28;20273;-93
2022/06/23 03:13:25;;;;;;;5.43;2.67;;;22.30;53.30;;;;;;5038405;28;20178;-93
2022/06/23 03:16:00;;;;;;;2.57;2.37;;;22.30;53.40;;;;;;5037300;28;20172;-93
2022/06/23 03:18:48;;;;;;;4.10;2.53;;;22.30;53.50;;;;;;5037956;28;20178;-92
2022/06/23 03:21:48;;;;;;;6.13;2.70;;;22.30;53.60;;;;;;5037549;28;20481;-92
2022/06/23 03:24:35;;;;;;;4.77;2.37;;;22.20;53.70;;;;;;5004903;28;20180;-93
2022/06/23 03:27:04;;;;;;;2.73;2.43;;;22.20;53.70;;;;;;5037044;28;20182;-93
2022/06/23 03:29:41;;;;;;;4.07;2.70;;;22.20;53.70;;;;;;5037611;28;20221;-93
2022/06/23 03:32:33;;;;;;;3.37;2.70;;;22.20;53.80;;;;;;5038174;28;20442;-93
2022/06/23 03:35:21;;;;;;;4.53;2.47;;;22.20;53.90;;;;;;5037749;28;20355;-94
2022/06/23 03:38:06;;;;;;;7.67;2.70;;;22.10;54.10;;;;;;5038540;28;20183;-93
2022/06/23 03:44:21;;;;;;;5.80;2.37;;;22.10;54.10;;;;;;5046626;28;20193;-93
2022/06/23 03:46:59;;;;;;;4.00;2.43;;;22.10;54.20;;;;;;5037938;28;20178;-93
2022/06/23 03:49:33;;;;;;;3.90;2.60;;;22.10;54.20;;;;;;5038735;28;20217;-93
2022/06/23 03:52:02;;;;;;;3.33;2.70;;;22.10;54.30;;;;;;5038043;28;20175;-93
2022/06/23 03:55:06;;;;;;;3.60;3.00;;;22.10;54.40;;;;;;5037558;28;20199;-93
2022/06/23 03:57:40;;;;;;;4.77;2.80;;;22.10;54.30;;;;;;5038008;28;20168;-93
2022/06/23 04:00:19;;;;;;;4.60;2.57;;;22.10;54.30;;;;;;5037481;28;20463;-93
2022/06/23 04:02:50;;;;;;;3.57;2.93;;;22.10;54.30;;;;;;5054387;28;20168;-94
2022/06/23 04:05:25;;;;;;;4.27;2.73;;;22.10;54.20;;;;;;5054024;28;20176;-94
2022/06/23 04:08:02;;;;;;;4.00;2.80;;;22.20;54.40;;;;;;5053278;28;20190;-93
2022/06/23 04:10:36;;;;;;;5.03;2.90;;;22.20;54.40;;;;;;5052822;28;20261;-94
2022/06/23 04:13:26;;;;;;;3.50;2.87;;;22.20;54.40;;;;;;5052671;28;20168;-94
2022/06/23 04:15:55;;;;;;;3.37;2.57;;;22.30;54.50;;;;;;5051147;28;20190;-94
2022/06/23 04:18:28;;;;;;;3.23;2.90;;;22.30;54.60;;;;;;5050470;28;20164;-94
2022/06/23 04:20:58;;;;;;;4.53;2.70;;;22.30;54.50;;;;;;5050410;28;20172;-94
2022/06/23 04:23:32;;;;;;;4.13;3.20;;;22.30;54.50;;;;;;5055023;28;20172;-95
2022/06/23 04:26:21;;;;;;;5.93;2.97;;;22.40;54.50;;;;;;5056116;28;20172;-94
2022/06/23 04:28:55;;;;;;;3.70;3.33;;;22.40;54.60;;;;;;5056725;28;20172;-94
2022/06/23 04:31:33;;;;;;;5.63;3.13;;;22.40;54.70;;;;;;5053829;28;20176;-94
2022/06/23 04:34:01;;;;;;;3.87;2.87;;;22.40;54.70;;;;;;5053872;28;20176;-94
2022/06/23 04:36:31;;;;;;;4.43;3.50;;;22.40;54.80;;;;;;5048280;28;20230;-93
2022/06/23 04:39:00;;;;;;;5.27;3.20;;;22.40;54.60;;;;;;5040472;28;20172;-93
2022/06/23 04:41:37;;;;;;;5.87;3.17;;;22.50;54.70;;;;;;5039605;28;20206;-93
2022/06/23 04:44:12;;;;;;;5.23;3.10;;;22.50;54.70;;;;;;5040055;28;20173;-93
2022/06/23 04:46:43;;;;;;;3.47;2.90;;;22.50;54.80;;;;;;5039145;28;20175;-93
2022/06/23 04:49:30;;;;;;;4.70;2.93;;;22.50;55.10;;;;;;5038628;28;20211;-93
2022/06/23 04:52:10;;;;;;;2.93;2.27;;;22.50;55.10;;;;;;5039808;28;20258;-93
2022/06/23 04:54:52;;;;;;;2.97;2.20;;;22.60;55.00;;;;;;5039211;28;20168;-93
2022/06/23 04:57:27;;;;;;;2.07;1.87;;;22.70;54.70;;;;;;5038486;28;20541;-93
2022/06/23 04:59:57;;;;;;;2.50;1.80;;;22.80;54.60;;;;;;5039083;28;20180;-93
2022/06/23 05:02:38;;;;;;;3.63;2.07;;;22.90;54.20;;;;;;5039142;28;20714;-93
2022/06/23 05:05:29;;;;;;;4.20;2.57;;;22.90;54.20;;;;;;5039533;28;20176;-93
2022/06/23 05:08:16;;;;;;;3.53;2.30;;;23.00;54.20;;;;;;5044039;28;20196;-94
2022/06/23 05:10:55;;;;;;;2.03;1.83;;;23.10;54.10;;;;;;5056885;28;20223;-94
2022/06/23 05:13:36;;;;;;;2.87;1.87;;;23.10;53.90;;;;;;5054987;28;20171;-94
2022/06/23 05:16:09;;;;;;;2.80;1.97;;;23.20;53.80;;;;;;5053671;28;20179;-94
2022/06/23 05:18:42;;;;;;;4.37;2.20;;;23.30;53.70;;;;;;5053515;28;20172;-94
2022/06/23 05:21:14;;;;;;;4.97;1.90;;;23.40;53.60;;;;;;5053235;28;20179;-94
2022/06/23 05:23:43;;;;;;;3.40;2.07;;;23.40;53.60;;;;;;5050167;28;20176;-94
2022/06/23 05:26:21;;;;;;;5.40;1.90;;;23.50;53.90;;;;;;5051342;28;20240;-94
2022/06/23 05:28:52;;;;;;;3.03;1.87;;;23.50;53.60;;;;;;5071499;28;20172;-94
2022/06/23 05:31:23;;;;;;;3.50;2.10;;;23.60;53.60;;;;;;5050865;28;20208;-94
2022/06/23 05:33:51;;;;;;;4.67;2.20;;;23.70;53.60;;;;;;5054484;28;20185;-94
2022/06/23 05:36:23;;;;;;;5.23;2.37;;;23.70;53.50;;;;;;5052334;28;20292;-94
2022/06/23 05:38:55;;;;;;;3.13;2.20;;;23.80;53.50;;;;;;5051351;28;20234;-95
2022/06/23 05:41:34;;;;;;;3.33;2.10;;;23.90;53.30;;;;;;5050946;28;20179;-94
2022/06/23 05:44:07;;;;;;;3.67;2.20;;;24.00;53.30;;;;;;5051616;28;20179;-93
2022/06/23 05:46:36;;;;;;;6.67;2.20;;;24.10;53.20;;;;;;5052494;28;20190;-94
2022/06/23 05:49:20;;;;;;;4.27;2.30;;;24.20;53.10;;;;;;5052322;28;20203;-95
2022/06/23 05:52:06;;;;;;;3.40;2.43;;;24.30;52.90;;;;;;5050481;28;20207;-94
2022/06/23 05:54:53;;;;;;;2.87;2.10;;;24.40;52.80;;;;;;5051340;28;20171;-95
2022/06/23 05:57:41;;;;;;;4.23;2.30;;;24.50;52.50;;;;;;5051591;28;20172;-94
2022/06/23 06:00:34;;;;;;;3.20;2.33;;;24.60;52.40;;;;;;5051178;28;20171;-94
2022/06/23 06:03:23;;;;;;;3.97;2.37;;;24.70;52.20;;;;;;5054083;28;20186;-94
2022/06/23 06:05:54;;;;;;;4.90;2.10;;;24.80;52.00;;;;;;5052987;28;20175;-94
2022/06/23 06:09:35;;;;;;;6.07;2.37;;;24.90;51.80;;;;;;5053976;28;20247;-95
2022/06/23 06:11:21;;;;;;;3.33;2.40;;;25.10;51.70;;;;;;5070623;28;20210;-94
2022/06/23 06:13:46;;;;;;;5.47;2.17;;;25.30;51.40;;;;;;5055089;28;20183;-94
2022/06/23 06:16:18;;;;;;;2.87;2.10;;;25.60;51.10;;;;;;5056185;28;20259;-94
2022/06/23 06:18:46;;;;;;;4.03;2.20;;;26.00;50.60;;;;;;5057273;28;20287;-95
2022/06/23 06:21:16;;;;;;;3.10;2.20;;;26.40;50.10;;;;;;5055406;28;20165;-95
2022/06/23 06:23:41;;;;;;;5.77;2.60;;;26.70;49.70;;;;;;5056112;28;20240;-94
2022/06/23 06:26:22;;;;;;;3.33;2.20;;;27.00;49.30;;;;;;5054918;28;20238;-94
2022/06/23 06:28:48;;;;;;;7.73;2.50;;;27.20;49.00;;;;;;5048818;28;20171;-94
2022/06/23 06:31:28;;;;;;;4.43;2.47;;;27.40;48.70;;;;;;5052920;28;20176;-94
2022/06/23 06:34:03;;;;;;;2.57;2.10;;;27.60;48.50;;;;;;5050011;28;20180;-93
2022/06/23 06:36:39;;;;;;;3.27;2.30;;;27.70;48.40;;;;;;5048787;28;20243;-94
2022/06/23 06:39:18;;;;;;;4.27;2.63;;;27.80;48.00;;;;;;5047754;28;20171;-95
2022/06/23 06:41:50;;;;;;;3.00;2.33;;;28.00;48.10;;;;;;5050845;28;20184;-92
2022/06/23 06:44:18;;;;;;;4.73;2.40;;;28.10;47.80;;;;;;5037392;28;20608;-93
2022/06/23 06:46:44;;;;;;;3.67;2.60;;;28.10;47.70;;;;;;5035173;28;20172;-93
2022/06/23 06:49:19;;;;;;;4.20;2.50;;;28.20;47.80;;;;;;5034314;28;20210;-93
2022/06/23 06:51:47;;;;;;;4.93;2.40;;;28.40;48.10;;;;;;5035137;28;20186;-94
2022/06/23 06:54:33;;;;;;;3.30;2.27;;;28.50;47.60;;;;;;5035809;28;20267;-93
2022/06/23 06:57:04;;;;;;;4.63;2.60;;;28.60;47.50;;;;;;5033829;28;20315;-93
2022/06/23 06:59:58;;;;;;;5.22;2.50;;;28.60;47.50;;;;;;5033198;28;20183;-93
2022/06/23 07:02:42;;;;;;;4.57;2.60;;;28.70;47.60;;;;;;5018325;28;20177;-93
2022/06/23 07:05:32;;;;;;;4.97;3.92;;;28.90;47.50;;;;;;5036876;28;20169;-93
2022/06/23 07:08:05;;;;;;;4.88;3.28;;;28.90;47.60;;;;;;5017350;28;20177;-94
2022/06/23 07:10:46;;;;;;;5.68;3.10;;;29.00;47.20;;;;;;5013324;28;20453;-94
2022/06/23 07:13:37;;;;;;;3.28;2.70;;;29.10;47.30;;;;;;5015356;28;20250;-94
2022/06/23 07:16:17;;;;;;;3.42;2.95;;;29.10;47.20;;;;;;5019880;28;20172;-95
2022/06/23 07:19:10;;;;;;;4.38;2.97;;;29.20;47.10;;;;;;5018462;28;20303;-95
2022/06/23 07:22:12;;;;;;;3.50;3.10;;;29.30;47.20;;;;;;5016341;28;20173;-94
2022/06/23 07:25:02;;;;;;;4.43;2.97;;;29.40;47.20;;;;;;5009582;28;20176;-95
2022/06/23 07:28:04;;;;;;;4.78;2.97;;;29.40;47.00;;;;;;5014868;28;20165;-94
2022/06/23 07:31:12;;;;;;;5.50;2.80;;;29.50;47.00;;;;;;4953666;28;20256;-95
2022/06/23 07:33:52;;;;;;;4.70;2.78;;;29.50;47.00;;;;;;4999868;28;20361;-95
2022/06/23 07:36:30;;;;;;;3.17;2.80;;;29.60;47.00;;;;;;5014297;28;20176;-95
2022/06/23 07:39:16;;;;;;;4.57;2.83;;;29.60;47.20;;;;;;5013848;28;20169;-95
2022/06/23 07:41:59;;;;;;;6.32;2.88;;;29.70;47.30;;;;;;5013989;28;20203;-95
2022/06/23 07:44:28;;;;;;;5.35;2.75;;;29.80;47.20;;;;;;5014721;28;20502;-95
2022/06/23 07:46:54;;;;;;;4.78;2.78;;;29.90;47.30;;;;;;5015109;28;20184;-95
2022/06/23 07:49:20;;;;;;;3.65;2.80;;;29.90;47.70;;;;;;5031976;28;20521;-95
2022/06/23 07:51:46;;;;;;;4.13;2.60;;;29.90;47.60;;;;;;5018289;28;20169;-92
2022/06/23 07:54:18;;;;;;;4.97;2.70;;;30.00;47.60;;;;;;5017566;28;20165;-93
2022/06/23 07:56:46;;;;;;;4.80;3.00;;;30.00;48.00;;;;;;5019704;28;20335;-93
2022/06/23 07:59:14;;;;;;;4.47;2.65;;;30.10;48.20;;;;;;5020140;28;20555;-93
2022/06/23 08:01:50;;;;;;;4.03;2.63;;;30.30;48.60;;;;;;5020391;28;20428;-93
2022/06/23 08:04:31;;;;;;;4.65;2.78;;;30.40;48.40;;;;;;5020280;28;20184;-93
2022/06/23 08:07:01;;;;;;;5.05;2.90;;;30.40;48.30;;;;;;5019645;28;20202;-93
2022/06/23 08:09:37;;;;;;;4.97;3.38;;;30.50;48.50;;;;;;5021874;28;20189;-92
2022/06/23 08:18:26;;;;;;;5.35;3.45;;;30.80;47.90;;;;;;5037756;28;20284;-92
2022/06/23 08:21:05;;;;;;;4.22;3.03;;;31.00;47.70;;;;;;5018881;28;20268;-92
2022/06/23 08:23:36;;;;;;;3.88;3.00;;;31.10;47.50;;;;;;5020802;28;20177;-92
2022/06/23 08:26:05;;;;;;;4.28;3.28;;;31.10;47.60;;;;;;5021877;28;20180;-93
2022/06/23 08:28:31;;;;;;;3.90;3.28;;;31.10;47.10;;;;;;5024477;28;20201;-93
2022/06/23 08:30:57;;;;;;;5.18;2.92;;;31.20;47.00;;;;;;5039437;28;20356;-93
2022/06/23 08:33:23;;;;;;;6.28;2.70;;;31.20;47.00;;;;;;5045311;28;20197;-93
2022/06/23 08:35:53;;;;;;;3.53;3.00;;;31.20;47.00;;;;;;5040773;28;20208;-93
2022/06/23 08:38:28;;;;;;;3.20;2.78;;;31.20;47.00;;;;;;5026465;28;20216;-93
2022/06/23 08:41:03;;;;;;;4.65;3.00;;;31.20;47.00;;;;;;5021245;28;20202;-93
2022/06/23 08:43:46;;;;;;;3.58;2.83;;;31.20;47.20;;;;;;5024237;28;20194;-94
2022/06/23 08:46:23;;;;;;;4.88;2.80;;;31.10;47.30;;;;;;5016889;28;20168;-93
2022/06/23 08:49:15;;;;;;;3.58;2.72;;;31.10;47.40;;;;;;5020021;28;20561;-93
2022/06/23 08:51:44;;;;;;;4.20;2.75;;;31.10;47.40;;;;;;5033875;28;20574;-93
2022/06/23 08:54:47;;;;;;;4.00;3.25;;;31.10;47.50;;;;;;5019208;28;20164;-93
2022/06/23 08:57:48;;;;;;;3.47;3.17;;;31.30;47.20;;;;;;5018509;28;20203;-93
2022/06/23 09:00:34;;;;;;;3.53;2.83;;;31.40;47.30;;;;;;4979089;28;20184;-93
2022/06/23 09:03:24;;;;;;;5.60;2.88;;;31.50;47.20;;;;;;5019070;28;20288;-93
2022/06/23 09:05:57;;;;;;;3.97;3.00;;;31.40;47.20;;;;;;5020301;28;20180;-94
2022/06/23 09:08:42;;;;;;;3.75;2.95;;;31.50;47.20;;;;;;5016475;28;20179;-93
2022/06/23 09:11:30;;;;;;;4.32;3.00;;;31.60;47.10;;;;;;5017364;28;20232;-92
2022/06/23 09:14:20;;;;;;;4.22;2.97;;;31.60;46.90;;;;;;5016064;28;20271;-92
2022/06/23 09:16:59;;;;;;;4.97;2.80;;;31.60;47.00;;;;;;5013081;28;20220;-93
2022/06/23 09:19:39;;;;;;;6.70;2.85;;;31.60;47.00;;;;;;5018616;28;20183;-93
2022/06/23 09:22:34;;;;;;;4.18;2.53;;;31.60;47.00;;;;;;5016870;28;20238;-94
2022/06/23 09:25:44;;;;;;;3.72;2.83;;;31.60;46.90;;;;;;5017998;28;20187;-93
2022/06/23 09:28:37;;;;;;;5.88;3.10;;;31.60;46.90;;;;;;5017351;28;20367;-93
2022/06/23 09:31:22;;;;;;;4.30;3.17;;;31.60;46.80;;;;;;5018533;28;20201;-94
2022/06/23 09:33:57;;;;;;;3.30;2.83;;;31.60;46.80;;;;;;5016593;28;20177;-93
2022/06/23 09:36:44;;;;;;;3.72;2.60;;;31.70;46.70;;;;;;5037515;28;20168;-93
2022/06/23 09:39:31;;;;;;;3.90;2.70;;;31.70;46.50;;;;;;5015353;28;20193;-93
2022/06/23 09:42:32;;;;;;;3.28;2.75;;;31.60;46.50;;;;;;5017019;28;20540;-93
2022/06/23 09:45:29;;;;;;;4.93;3.00;;;31.70;46.10;;;;;;5028843;28;20227;-93
2022/06/23 09:48:34;;;;;;;4.47;3.00;;;31.80;46.20;;;;;;5025833;28;20173;-94
2022/06/23 09:51:11;;;;;;;4.63;2.92;;;31.80;46.10;;;;;;5021088;28;20579;-93
2022/06/23 09:53:52;;;;;;;4.60;2.83;;;31.80;46.00;;;;;;5024654;28;20222;-93
2022/06/23 09:56:49;;;;;;;4.65;2.88;;;31.80;45.50;;;;;;5026163;28;20246;-93
2022/06/23 09:59:36;;;;;;;3.80;2.80;;;31.90;44.70;;;;;;5035939;28;20234;-94
2022/06/23 10:02:16;;;;;;;5.95;2.92;;;31.90;45.40;;;;;;5053335;28;20180;-94
2022/06/23 10:05:10;;;;;;;3.70;2.83;;;31.80;45.70;;;;;;5050596;28;20203;-94
2022/06/23 10:08:19;;;;;;;4.15;3.42;;;31.80;45.70;;;;;;5055478;28;20352;-94
2022/06/23 10:10:59;;;;;;;3.38;2.65;;;31.80;45.50;;;;;;5053822;28;20234;-94
2022/06/23 10:14:02;;;;;;;4.18;2.60;;;31.80;45.70;;;;;;5049385;28;20440;-94
2022/06/23 10:16:46;;;;;;;3.50;2.70;;;31.80;45.70;;;;;;5054002;28;20176;-94
2022/06/23 10:19:34;;;;;;;4.50;2.50;;;31.70;45.80;;;;;;5052411;28;20176;-94
2022/06/23 10:22:30;;;;;;;4.30;2.70;;;31.70;45.80;;;;;;5051093;28;20169;-94
2022/06/23 10:25:24;;;;;;;4.10;2.60;;;31.70;46.00;;;;;;5050511;28;20189;-94
2022/06/23 10:28:15;;;;;;;3.88;2.50;;;31.60;45.80;;;;;;5035300;28;20196;-94
2022/06/23 10:30:53;;;;;;;5.40;2.70;;;31.60;45.40;;;;;;5050288;28;20218;-95
2022/06/23 10:33:40;;;;;;;2.92;2.63;;;31.60;45.80;;;;;;5052879;28;20249;-94
2022/06/23 10:37:17;;;;;;;4.10;2.47;;;31.50;46.00;;;;;;5051889;28;20180;-95
2022/06/23 10:40:19;;;;;;;3.58;2.40;;;31.50;45.70;;;;;;4969691;28;20193;-94
2022/06/23 10:43:10;;;;;;;4.53;2.83;;;31.40;45.60;;;;;;5051203;28;20168;-93
2022/06/23 10:45:38;;;;;;;3.75;2.60;;;31.40;45.20;;;;;;5049010;28;20217;-95
2022/06/23 10:48:59;;;;;;;3.17;2.85;;;31.40;46.00;;;;;;5049258;28;20168;-94
2022/06/23 10:51:37;;;;;;;2.83;2.55;;;31.40;44.90;;;;;;4966272;28;20366;-94
2022/06/23 10:54:50;;;;;;;5.25;3.40;;;31.40;45.30;;;;;;5034300;28;20207;-94
2022/06/23 10:57:44;;;;;;;3.75;2.65;;;31.30;45.00;;;;;;5045987;28;20171;-94
2022/06/23 11:00:39;;;;;;;3.15;2.83;;;31.30;45.60;;;;;;5045152;28;20229;-94
2022/06/23 11:03:39;;;;;;;4.38;3.08;;;31.30;45.00;;;;;;5042623;28;20230;-93
2022/06/23 11:06:39;;;;;;;3.97;2.70;;;31.30;44.90;;;;;;5050285;28;20172;-95
2022/06/23 11:09:14;;;;;;;4.93;2.88;;;31.20;45.40;;;;;;5047084;28;20164;-95
2022/06/23 11:12:01;;;;;;;4.35;2.92;;;31.30;45.70;;;;;;5043757;28;20174;-94
2022/06/23 11:14:45;;;;;;;3.67;2.60;;;31.20;45.00;;;;;;5040846;28;20207;-94
2022/06/23 11:17:34;;;;;;;4.28;2.83;;;31.20;45.60;;;;;;5048087;28;20198;-94
2022/06/23 11:20:27;;;;;;;5.97;3.17;;;31.20;45.60;;;;;;5042227;28;20215;-94
2022/06/23 11:26:21;;;;;;;3.50;2.72;;;31.20;45.70;;;;;;5073836;28;20248;-95
2022/06/23 11:29:10;;;;;;;5.80;2.67;;;31.10;46.10;;;;;;5059649;28;20172;-94
2022/06/23 11:32:09;;;;;;;4.10;2.60;;;31.10;45.80;;;;;;5055746;28;20184;-94
2022/06/23 11:34:38;;;;;;;4.07;2.58;;;31.10;44.70;;;;;;5060799;28;20172;-94
2022/06/23 11:37:46;;;;;;;3.65;3.00;;;31.10;45.00;;;;;;5060173;28;20190;-93
2022/06/23 11:41:09;;;;;;;4.30;2.80;;;31.10;44.90;;;;;;5040904;28;20160;-95
2022/06/23 11:43:53;;;;;;;10.97;2.90;;;31.00;45.70;;;;;;5019902;28;20181;-94
2022/06/23 11:46:38;;;;;;;3.90;2.50;;;30.90;45.90;;;;;;5057480;28;20176;-94
2022/06/23 11:56:06;;;;;;;6.20;2.97;;;30.90;45.70;;;;;;5078751;28;20187;-94
2022/06/23 11:59:05;;;;;;;5.43;2.95;;;30.90;45.40;;;;;;5050384;28;20204;-94
2022/06/23 12:01:31;;;;;;;4.88;2.92;;;30.90;45.60;;;;;;5050161;28;20207;-94
2022/06/23 12:04:29;;;;;;;3.35;3.00;;;30.80;45.80;;;;;;5053545;28;20195;-94
2022/06/23 12:07:17;;;;;;;3.75;2.80;;;30.80;46.10;;;;;;5051305;28;20176;-94
2022/06/23 12:10:14;;;;;;;2.90;2.70;;;30.80;46.40;;;;;;5051449;28;20613;-93
2022/06/23 12:12:52;;;;;;;4.78;2.85;;;30.80;46.70;;;;;;5057212;28;20235;-93
2022/06/23 12:15:33;;;;;;;5.07;2.65;;;30.80;46.20;;;;;;5054014;28;20259;-94
2022/06/23 12:18:32;;;;;;;4.50;2.90;;;30.70;46.40;;;;;;5047066;28;20168;-94
2022/06/23 12:21:17;;;;;;;4.45;2.72;;;30.70;46.20;;;;;;5033727;28;20181;-94
2022/06/23 12:23:49;;;;;;;3.00;2.70;;;30.70;46.60;;;;;;5051605;28;20191;-94
2022/06/23 12:26:26;;;;;;;3.50;3.00;;;30.70;46.20;;;;;;5048058;28;20188;-93
2022/06/23 12:29:03;;;;;;;4.47;3.23;;;30.70;46.90;;;;;;5048260;28;20411;-93
2022/06/23 12:31:29;;;;;;;4.53;3.20;;;30.70;46.30;;;;;;5044834;28;20367;-93
2022/06/23 12:34:08;;;;;;;3.63;2.90;;;30.70;45.80;;;;;;5045830;28;20184;-94
2022/06/23 12:36:54;;;;;;;3.53;2.70;;;30.60;46.30;;;;;;5056105;28;20156;-95
2022/06/23 12:39:36;;;;;;;4.53;3.00;;;30.60;46.70;;;;;;5064193;28;20155;-94
2022/06/23 12:45:52;;;;;;;6.20;2.90;;;30.60;46.30;;;;;;5080266;28;20220;-93
2022/06/23 12:48:17;;;;;;;4.88;3.05;;;30.70;46.90;;;;;;5063757;28;20203;-94
2022/06/23 12:50:49;;;;;;;4.50;2.87;;;30.60;47.00;;;;;;5063575;28;20188;-92
2022/06/23 12:53:54;;;;;;;4.53;2.83;;;30.60;47.00;;;;;;5063331;28;20169;-93
2022/06/23 12:57:11;;;;;;;5.20;2.80;;;30.60;46.80;;;;;;5032777;28;20191;-94
2022/06/23 12:59:49;;;;;;;7.25;3.10;;;30.60;46.80;;;;;;5063518;28;20164;-92
2022/06/23 13:09:10;;;;;;;5.40;3.00;;;30.60;47.00;;;;;;5072447;28;20226;-94
2022/06/23 13:11:59;;;;;;;2.97;2.63;;;30.60;46.80;;;;;;5039138;28;20238;-94
2022/06/23 13:14:24;;;;;;;3.80;2.97;;;30.60;46.70;;;;;;5043377;28;20208;-94
2022/06/23 13:17:24;;;;;;;4.27;3.00;;;30.60;46.80;;;;;;5047181;28;20179;-93
2022/06/23 13:20:21;;;;;;;5.40;3.00;;;30.70;46.40;;;;;;5057571;28;20195;-94
2022/06/23 13:22:57;;;;;;;4.93;3.07;;;30.70;46.40;;;;;;5053704;28;20180;-95
2022/06/23 13:25:28;;;;;;;2.93;2.70;;;30.60;46.70;;;;;;5047105;28;20241;-94
2022/06/23 13:27:57;;;;;;;5.85;3.33;;;30.70;47.20;;;;;;5043094;28;20187;-94
2022/06/23 13:30:27;;;;;;;4.40;2.83;;;30.70;46.30;;;;;;5044459;28;20310;-94
2022/06/23 13:33:23;;;;;;;3.67;2.90;;;30.60;46.40;;;;;;5042052;28;20374;-94
2022/06/23 13:36:28;;;;;;;5.07;2.87;;;30.60;46.70;;;;;;5030617;28;20207;-93
2022/06/23 13:39:04;;;;;;;4.63;2.90;;;30.70;46.80;;;;;;4979178;28;20174;-94
2022/06/23 13:41:49;;;;;;;6.83;2.90;;;30.70;46.90;;;;;;5033972;28;20184;-93
2022/06/23 13:44:22;;;;;;;4.37;3.13;;;30.70;47.20;;;;;;5053180;28;20291;-94
2022/06/23 13:47:11;;;;;;;4.20;2.80;;;30.70;47.20;;;;;;5050639;28;20172;-94
2022/06/23 13:49:47;;;;;;;8.70;3.37;;;30.70;47.30;;;;;;5052995;28;20252;-94
2022/06/23 13:52:58;;;;;;;7.00;3.17;;;30.70;47.00;;;;;;5057704;28;20172;-94
2022/06/23 13:55:45;;;;;;;7.00;3.13;;;30.80;46.90;;;;;;5056083;28;20187;-94
2022/06/23 13:58:52;;;;;;;4.97;3.13;;;30.70;46.70;;;;;;5053100;28;20250;-94
2022/06/23 14:01:48;;;;;;;4.83;3.33;;;30.60;46.70;;;;;;5055851;28;20179;-94
2022/06/23 14:04:50;;;;;;;4.23;2.90;;;30.70;46.90;;;;;;5056777;28;20204;-93
2022/06/23 14:07:33;;;;;;;4.10;2.70;;;30.70;47.20;;;;;;5051796;28;20192;-94
2022/06/23 14:10:11;;;;;;;5.13;3.20;;;30.70;46.40;;;;;;5052530;28;20208;-94
2022/06/23 14:12:55;;;;;;;4.07;3.00;;;30.70;46.40;;;;;;5051186;28;20172;-94
2022/06/23 14:15:44;;;;;;;7.20;3.10;;;30.70;47.10;;;;;;5044553;28;20190;-93
2022/06/23 14:18:36;;;;;;;4.43;3.00;;;30.70;47.20;;;;;;5035825;28;20282;-94
2022/06/23 14:21:11;;;;;;;4.67;3.13;;;30.70;47.10;;;;;;5036783;28;20180;-94
2022/06/23 14:23:49;;;;;;;3.90;3.43;;;30.70;47.30;;;;;;5036305;28;20183;-94
2022/06/23 14:26:28;;;;;;;4.93;3.28;;;30.80;47.50;;;;;;5038664;28;20180;-95
2022/06/23 14:29:07;;;;;;;4.80;3.37;;;30.80;47.70;;;;;;5043166;28;20176;-94
2022/06/23 14:31:46;;;;;;;10.10;3.70;;;30.80;47.40;;;;;;5035783;28;20493;-94
2022/06/23 14:34:24;;;;;;;5.73;3.20;;;30.80;47.40;;;;;;5041237;28;20408;-94